whichairline.com alexa rank chart, whichairline.com alexa rank daily changes

whichairline.com alexa rank chart, whichairline.com alexa rank daily changes

whichairline.com
Actual rank:
246 701

RANK HISTORY

Date Rank Diff
2017/01/24 246 701 -584
2017/01/23 247 285 +1 629
2017/01/22 245 656 -17 243
2017/01/21 262 899 +1 100
2017/01/20 261 799 +7 703
2017/01/19 254 096 -7 882
2017/01/18 261 978 -2 099
2017/01/17 264 077 +12 034
2017/01/16 252 043 +14 943
2017/01/15 237 100 -4 945
2017/01/14 242 045 +66
2017/01/13 241 979 +1 037
2017/01/12 240 942 -806
2017/01/11 241 748 -9 849
2017/01/10 251 597 -8 074
2017/01/09 259 671 -7 739
2017/01/08 267 410 +5 779
2017/01/07 261 631 +3 400
2017/01/06 258 231 -1 571
2017/01/05 259 802 +3 604
2017/01/04 256 198 +24 605
2017/01/03 231 593 -15 398
2017/01/02 246 991 +2 730
2017/01/01 244 261 -5 505
2016/12/31 249 766 -772
2016/12/30 250 538 +12 098
2016/12/29 238 440 -845
2016/12/28 239 285 -3 846
2016/12/27 243 131 -4 869
2016/12/26 248 000 -2 518
2016/12/25 250 518 -15 518
2016/12/24 266 036 +298
2016/12/23 265 738 -3 215
2016/12/22 268 953 +6 423
2016/12/21 262 530 -9 712
2016/12/20 272 242 -15 323
2016/12/19 287 565 -690
2016/12/18 288 255 +22 280
2016/12/17 265 975 -10 870
2016/12/16 276 845 -22 951
2016/12/15 299 796 +1 827
2016/12/14 297 969 -25
2016/12/13 297 994 -6 535
2016/12/12 304 529 +1 696
2016/12/11 302 833 +7 307
2016/12/10 295 526 -4 091
2016/12/09 299 617 +26 621
2016/12/08 272 996 +4 532
2016/12/07 268 464 +4 604
2016/12/06 263 860 +15 225
2016/12/05 248 635 +2 684
2016/12/04 245 951 -27 069
2016/12/02 273 020 -9 859
2016/12/01 282 879 -5 509
2016/11/30 288 388 -7 624
2016/11/29 296 012 -880
2016/11/28 296 892 +7 430
2016/11/27 289 462 -228
2016/11/26 289 690 +670
2016/11/25 289 020

WIDGET FOR YOUR SITE

DOMAINS WITH THE NEAREST RANK

Domain Rank
softstogetnowin2017.space 246 696
consciouscat.net 246 697
traumfray.tumblr.com 246 698
ketabkole.ir 246 699
hoodporn.me 246 700
whichairline.com 246 701
peliculasytv.tv 246 702
mynpcdata.net 246 703
simple-home.net 246 704
bazzar.hr 246 705
linuxforen.de 246 706

DOMAINS WITH THE NEAREST RANK BY TLD .com

Domain Rank
primoconso.com 246 688
zhenshimeizi.com 246 690
al3rod.com 246 691
amateurporn.com 246 693
cowspiracy.com 246 694
whichairline.com 246 701
gameunseen.com 246 707
datukringgit.com 246 708
pikiniporn.com 246 709
secure-wms.com 246 710
naturehealthandbeauty.com 246 713